Flight Track Log - Related Links

Times and Time Zones

All times are in EDT time to prevent confusion due to time zone crossing. See the AWE9325 flight status page for this flight to view local times or setup timezone preferences in your user account.

Time Position Orientation Groundspeed Altitude Reporting Facility
EDT Latitude Longitude Course Direction KTS MPH feet Rate Location/Type
Mon 07:34:00 PM 33.9246 -118.0809 94° East  Level Estimated
Mon 07:35:00 PM 33.9185 -117.9719 94° East  Level Estimated
Mon 07:36:00 PM 33.9123 -117.8629 94° East  Level Estimated
Mon 07:37:00 PM 33.9059 -117.7540 94° East  Level Estimated
Mon 07:38:00 PM 33.8995 -117.6450 94° East  Level Estimated
Mon 07:39:00 PM 33.8929 -117.5360 94° East  Level Estimated
Mon 07:40:00 PM 33.8863 -117.4271 94° East  Level Estimated
Mon 07:41:00 PM 33.8796 -117.3182 94° East  Level Estimated
Mon 07:42:00 PM 33.8728 -117.2093 94° East  Level Estimated
Mon 07:43:00 PM 33.8659 -117.1004 94° East  Level Estimated
Mon 07:44:00 PM 33.8589 -116.9916 94° East  Level Estimated
Mon 07:45:00 PM 33.8518 -116.8827 94° East  Level Estimated
Mon 07:46:00 PM 33.8446 -116.7739 95° East  Level Estimated
Mon 07:47:00 PM 33.8373 -116.6651 95° East  Level Estimated
Mon 07:48:00 PM 33.8299 -116.5563 95° East  Level Estimated
Mon 07:49:00 PM 33.8224 -116.4475 95° East  Level Estimated
Mon 07:50:00 PM 33.8148 -116.3388 95° East  Level Estimated
Mon 07:51:00 PM 33.8071 -116.2300 95° East  Level Estimated
Mon 07:52:00 PM 33.7994 -116.1213 95° East  Level Estimated
Mon 07:53:00 PM 33.7915 -116.0126 95° East  Level Estimated
Mon 07:54:00 PM 33.7835 -115.9040 95° East  Level Estimated
Mon 07:55:00 PM 33.7755 -115.7953 95° East  Level Estimated
Mon 07:56:00 PM 33.7673 -115.6867 95° East  Level Estimated
Mon 07:57:00 PM 33.7591 -115.5781 95° East  Level Estimated
Mon 07:58:00 PM 33.7507 -115.4695 95° East  Level Estimated
Mon 07:59:00 PM 33.7423 -115.3609 95° East  Level Estimated
Mon 08:00:00 PM 33.7337 -115.2524 95° East  Level Estimated
Mon 08:01:00 PM 33.7251 -115.1439 95° East  Level Estimated
Mon 08:02:00 PM 33.7164 -115.0354 95° East  Level Estimated
Mon 08:03:00 PM 33.7076 -114.9269 96° East  Level Estimated
Mon 08:04:00 PM 33.6987 -114.8184 96° East  Level Estimated
Mon 08:05:00 PM 33.6897 -114.7100 96° East  Level Estimated
Mon 08:06:00 PM 33.6806 -114.6016 96° East  Level Estimated
Mon 08:07:00 PM 33.6714 -114.4932 96° East  Level Estimated
Mon 08:08:00 PM 33.6621 -114.3848 96° East  Level Estimated
Mon 08:09:00 PM 33.6527 -114.2765 96° East  Level Estimated
Mon 08:10:00 PM 33.6432 -114.1682 96° East  Level Estimated
Mon 08:11:00 PM 33.6336 -114.0599 96° East  Level Estimated
Mon 08:12:00 PM 33.6240 -113.9516 96° East  Level Estimated
Mon 08:13:00 PM 33.6142 -113.8434 96° East  Level Estimated
Mon 08:14:00 PM 33.6043 -113.7352 96° East  Level Estimated
Mon 08:15:00 PM 33.5944 -113.6270 96° East  Level Estimated
Mon 08:16:00 PM 33.5843 -113.5188 96° East  Level Estimated
Mon 08:17:00 PM 33.5742 -113.4107 96° East  Level Estimated
Mon 08:18:00 PM 33.5639 -113.3025 96° East  Level Estimated
Mon 08:19:00 PM 33.5536 -113.1944 97° East  Level Estimated
Mon 08:20:00 PM 33.5422 -113.0764 97° East  Level Estimated
Mon 08:21:00 PM 33.5307 -112.9583 97° East  Level Estimated
Mon 08:22:00 PM 33.5197 -112.8465 97° East  Level Estimated
Mon 08:23:00 PM 33.5086 -112.7348 97° East  Level Estimated
Mon 08:24:00 PM 33.4974 -112.6230 97° East  Level Estimated
Mon 08:25:00 PM 33.4861 -112.5113 97° East  Level Estimated
Mon 08:26:00 PM 33.4747 -112.3996 97° East  Level Estimated
Mon 08:27:00 PM 33.4632 -112.2880 97° East  Level Estimated
Mon 08:28:00 PM 33.4516 -112.1764 97° East  Level Estimated
Mon 08:29:00 PM 33.4399 -112.0648 97° East  Level Estimated
Mon 08:30:00 PM 33.4343 -112.0116 97° East  Level Estimated
Mon 08:31:00 PM 33.4343 -112.0116 231° Southwest  Level Estimated
Mon 08:32:00 PM 33.4343 -112.0116 231° Southwest  Level Estimated
Mon 08:33:00 PM 33.4343 -112.0116 231° Southwest  Level Estimated
Mon 08:34:00 PM 33.4343 -112.0116 231° Southwest  Level Estimated

Login

Don't have an account? Register now (free) for customized features, flight alerts, and more!